createdAt,value
2018-04-22T00:02:23.031Z,17.60
2018-04-22T00:04:51.305Z,18.47
2018-04-22T00:07:19.573Z,21.50
2018-04-22T00:09:47.819Z,20.57
2018-04-22T00:12:15.284Z,25.07
2018-04-22T00:14:42.775Z,19.37
2018-04-22T00:17:10.260Z,22.17
2018-04-22T00:19:37.745Z,17.80
2018-04-22T00:22:05.239Z,21.50
2018-04-22T00:24:33.489Z,21.27
2018-04-22T00:27:01.005Z,21.80
2018-04-22T00:29:28.474Z,17.50
2018-04-22T00:31:55.967Z,18.40
2018-04-22T00:34:23.432Z,19.60
2018-04-22T00:36:50.912Z,16.77
2018-04-22T00:39:18.400Z,21.50
2018-04-22T00:41:46.094Z,18.60
2018-04-22T00:44:14.132Z,27.90
2018-04-22T00:46:41.606Z,18.20
2018-04-22T00:49:09.097Z,19.43
2018-04-22T00:51:36.602Z,18.40
2018-04-22T00:54:15.817Z,24.03
2018-04-22T00:56:44.068Z,19.03
2018-04-22T00:59:11.526Z,20.50
2018-04-22T01:01:39.006Z,19.00
2018-04-22T01:04:06.493Z,20.20
2018-04-22T01:06:33.987Z,26.20
2018-04-22T01:09:01.487Z,20.63
2018-04-22T01:11:28.961Z,23.00
2018-04-22T01:13:56.429Z,20.53
2018-04-22T01:16:23.946Z,19.43
2018-04-22T01:18:51.434Z,21.60
2018-04-22T01:21:18.922Z,21.00
2018-04-22T01:23:46.414Z,19.80
2018-04-22T01:26:14.666Z,20.70
2018-04-22T01:28:42.153Z,20.27
2018-04-22T01:31:10.399Z,21.03
2018-04-22T01:33:37.874Z,17.83
2018-04-22T01:36:06.133Z,19.23
2018-04-22T01:38:33.605Z,21.23
2018-04-22T01:41:01.119Z,22.83
2018-04-22T01:43:28.602Z,23.23
2018-04-22T01:45:56.082Z,23.83
2018-04-22T01:48:24.325Z,20.10
2018-04-22T01:50:51.799Z,25.07
2018-04-22T01:53:19.292Z,19.17
2018-04-22T01:55:47.527Z,21.87
2018-04-22T01:58:15.021Z,21.87
2018-04-22T02:00:43.294Z,21.63
2018-04-22T02:03:11.533Z,21.70
2018-04-22T02:05:39.032Z,22.33
2018-04-22T02:08:07.279Z,18.53
2018-04-22T02:10:34.759Z,19.30
2018-04-22T02:13:03.010Z,20.30
2018-04-22T02:15:30.489Z,23.43
2018-04-22T02:17:57.993Z,22.23
2018-04-22T02:20:25.487Z,19.80
2018-04-22T02:22:52.989Z,18.80
2018-04-22T02:25:20.458Z,21.30
2018-04-22T02:27:47.919Z,21.60
2018-04-22T02:30:15.431Z,21.03
2018-04-22T02:32:42.885Z,22.10
2018-04-22T02:35:10.397Z,21.83
2018-04-22T02:37:37.898Z,24.30
2018-04-22T02:40:05.363Z,28.87
2018-04-22T02:42:33.636Z,22.50
2018-04-22T02:45:01.107Z,23.50
2018-04-22T02:47:29.362Z,20.07
2018-04-22T02:49:56.839Z,23.43
2018-04-22T02:52:24.326Z,22.87
2018-04-22T02:54:51.814Z,24.87
2018-04-22T02:57:19.305Z,27.07
2018-04-22T02:59:47.565Z,24.40
2018-04-22T03:02:15.819Z,26.77
2018-04-22T03:04:43.290Z,21.90
2018-04-22T03:07:10.780Z,30.10
2018-04-22T03:09:38.250Z,21.47
2018-04-22T03:12:05.750Z,22.23
2018-04-22T03:14:33.208Z,24.73
2018-04-22T03:17:00.702Z,27.10
2018-04-22T03:19:28.950Z,23.73
2018-04-22T03:21:56.408Z,25.17
2018-04-22T03:24:23.904Z,26.80
2018-04-22T03:26:51.382Z,25.57
2018-04-22T03:29:18.876Z,27.23
2018-04-22T03:31:46.360Z,26.30
2018-04-22T03:34:14.604Z,27.77
2018-04-22T03:36:42.080Z,33.13
2018-04-22T03:39:09.531Z,32.80
2018-04-22T03:41:37.010Z,25.30
2018-04-22T03:44:04.500Z,27.70
2018-04-22T03:46:32.006Z,30.03
2018-04-22T03:48:59.474Z,30.27
2018-04-22T03:51:28.513Z,26.40
2018-04-22T03:53:55.990Z,28.37
2018-04-22T03:56:23.478Z,29.07
2018-04-22T03:58:51.002Z,26.57
2018-04-22T04:01:18.484Z,26.47
2018-04-22T04:03:45.961Z,27.63
2018-04-22T04:06:13.439Z,30.17
2018-04-22T04:08:40.913Z,25.50
2018-04-22T04:11:08.419Z,26.30
2018-04-22T04:13:35.913Z,31.10
2018-04-22T04:16:03.412Z,32.03
2018-04-22T04:18:52.381Z,28.23
2018-04-22T04:21:31.568Z,25.40
2018-04-22T04:27:25.423Z,25.60
2018-04-22T04:29:52.899Z,23.33
2018-04-22T04:32:20.386Z,35.13
2018-04-22T04:34:47.877Z,27.70
2018-04-22T04:37:15.361Z,23.73
2018-04-22T04:39:42.863Z,26.93
2018-04-22T04:42:10.325Z,26.00
2018-04-22T04:44:37.822Z,28.13
2018-04-22T04:47:05.296Z,26.40
2018-04-22T04:49:32.780Z,26.63
2018-04-22T04:52:00.274Z,20.37
2018-04-22T04:54:27.767Z,26.93
2018-04-22T04:56:56.038Z,28.40
2018-04-22T04:59:23.518Z,25.13
2018-04-22T05:01:51.767Z,34.00
2018-04-22T05:04:19.244Z,29.87
2018-04-22T05:06:47.486Z,30.23
2018-04-22T05:09:14.973Z,28.00
2018-04-22T05:11:43.222Z,28.70
2018-04-22T05:14:10.712Z,29.80
2018-04-22T05:16:38.986Z,31.53
2018-04-22T05:19:07.228Z,25.43
2018-04-22T05:21:34.719Z,28.43
2018-04-22T05:24:02.948Z,26.90
2018-04-22T05:26:30.448Z,26.10
2018-04-22T05:28:58.694Z,26.20
2018-04-22T05:31:26.210Z,24.17
2018-04-22T05:33:53.694Z,22.97
2018-04-22T05:36:21.171Z,21.40
2018-04-22T05:38:48.668Z,19.97
2018-04-22T05:41:16.888Z,22.40
2018-04-22T05:43:44.390Z,17.73
2018-04-22T05:46:12.620Z,16.60
2018-04-22T05:48:40.118Z,20.13
2018-04-22T05:51:07.590Z,19.60
2018-04-22T05:53:35.075Z,20.40
2018-04-22T05:56:02.549Z,17.40
2018-04-22T05:58:30.018Z,16.47
2018-04-22T06:00:57.580Z,18.00
2018-04-22T06:03:25.054Z,16.90
2018-04-22T06:05:52.542Z,16.33
2018-04-22T06:08:20.035Z,16.90
2018-04-22T06:10:47.506Z,16.03
2018-04-22T06:13:14.996Z,19.10
2018-04-22T06:15:43.244Z,15.97
2018-04-22T06:18:10.732Z,15.50
2018-04-22T06:20:38.993Z,15.23
2018-04-22T06:23:06.484Z,16.40
2018-04-22T06:25:33.955Z,21.70
2018-04-22T06:28:01.419Z,16.07
2018-04-22T06:30:28.925Z,14.93
2018-04-22T06:32:56.416Z,15.47
2018-04-22T06:35:23.922Z,20.00
2018-04-22T06:37:51.403Z,15.63
2018-04-22T06:40:18.952Z,19.13
2018-04-22T06:42:46.396Z,18.03
2018-04-22T06:45:13.867Z,16.00
2018-04-22T06:47:41.362Z,15.87
2018-04-22T06:50:08.850Z,16.73
2018-04-22T06:52:36.366Z,16.07
2018-04-22T06:55:04.616Z,15.77
2018-04-22T06:57:32.102Z,16.77
2018-04-22T07:00:00.382Z,17.43
2018-04-22T07:02:28.647Z,15.50
2018-04-22T07:04:56.889Z,15.10
2018-04-22T07:07:24.403Z,18.70
2018-04-22T07:09:51.903Z,16.47
2018-04-22T07:12:19.517Z,21.90
2018-04-22T07:14:46.997Z,16.43
2018-04-22T07:17:14.523Z,16.93
2018-04-22T07:19:42.038Z,17.10
2018-04-22T07:22:09.989Z,18.57
2018-04-22T07:24:37.492Z,18.50
2018-04-22T07:27:04.970Z,18.73
2018-04-22T07:29:32.454Z,19.03
2018-04-22T07:31:59.931Z,18.23
2018-04-22T07:34:27.417Z,23.00
2018-04-22T07:36:54.911Z,20.47
2018-04-22T07:39:22.415Z,18.40
2018-04-22T07:41:49.908Z,19.23
2018-04-22T07:44:18.156Z,20.30
2018-04-22T07:46:45.996Z,19.63
2018-04-22T07:49:13.492Z,18.60
2018-04-22T07:51:40.966Z,18.70
2018-04-22T07:54:08.460Z,18.27
2018-04-22T07:56:35.953Z,18.87
2018-04-22T07:59:03.948Z,21.33
2018-04-22T08:01:31.577Z,21.37
2018-04-22T08:03:59.099Z,18.20
2018-04-22T08:06:26.598Z,19.50
2018-04-22T08:08:55.336Z,20.37
2018-04-22T08:11:22.846Z,17.97
2018-04-22T08:13:50.343Z,19.20
2018-04-22T08:16:17.865Z,19.27
2018-04-22T08:18:45.331Z,18.43
2018-04-22T08:21:13.612Z,18.10
2018-04-22T08:23:41.881Z,17.60
2018-04-22T08:26:09.362Z,18.57
2018-04-22T08:28:36.862Z,17.97
2018-04-22T08:31:04.368Z,20.30
2018-04-22T08:33:31.919Z,17.67
2018-04-22T08:35:59.710Z,15.73
2018-04-22T08:38:27.399Z,16.23
2018-04-22T08:40:56.111Z,17.10
2018-04-22T08:43:23.632Z,15.50
2018-04-22T08:45:51.149Z,15.87
2018-04-22T08:48:18.630Z,21.93
2018-04-22T08:50:46.165Z,15.87
2018-04-22T08:53:14.430Z,15.70
2018-04-22T08:55:41.937Z,16.70
2018-04-22T08:58:09.449Z,15.47
2018-04-22T09:00:36.961Z,17.47
2018-04-22T09:03:04.448Z,18.00
2018-04-22T09:05:31.973Z,17.37
2018-04-22T09:07:59.455Z,16.90
2018-04-22T09:10:26.960Z,16.53
2018-04-22T09:12:55.250Z,15.20
2018-04-22T09:15:22.776Z,15.27
2018-04-22T09:17:50.344Z,17.47
2018-04-22T09:20:18.639Z,11.73
2018-04-22T09:22:46.184Z,11.50
2018-04-22T09:25:14.436Z,11.03
2018-04-22T09:27:41.920Z,11.47
2018-04-22T09:30:10.216Z,17.03
2018-04-22T09:32:37.694Z,12.90
2018-04-22T09:35:05.178Z,12.43
2018-04-22T09:37:32.712Z,12.27
2018-04-22T09:40:00.244Z,14.63
2018-04-22T09:42:27.742Z,10.53
2018-04-22T09:44:55.268Z,11.80
2018-04-22T09:47:22.760Z,11.53
2018-04-22T09:49:50.253Z,13.70
2018-04-22T09:52:18.524Z,13.33
2018-04-22T09:54:46.021Z,9.77
2018-04-22T09:57:13.553Z,9.90
2018-04-22T09:59:41.043Z,11.33
2018-04-22T10:02:16.187Z,11.50
2018-04-22T10:04:44.570Z,9.13
2018-04-22T10:07:12.085Z,12.77
2018-04-22T10:09:40.331Z,14.97
2018-04-22T10:12:07.838Z,10.17
2018-04-22T10:14:35.316Z,9.30
2018-04-22T10:17:02.793Z,8.73
2018-04-22T10:19:30.309Z,15.53
2018-04-22T10:21:58.545Z,9.93
2018-04-22T10:24:26.019Z,8.00
2018-04-22T10:26:53.500Z,11.13
2018-04-22T10:29:21.021Z,8.90
2018-04-22T10:31:49.280Z,7.60
2018-04-22T10:34:16.780Z,8.60
2018-04-22T10:36:45.064Z,11.13
2018-04-22T10:39:12.554Z,10.43
2018-04-22T10:41:40.057Z,8.03
2018-04-22T10:44:08.305Z,9.80
2018-04-22T10:46:35.798Z,8.93
2018-04-22T10:49:05.950Z,9.37
2018-04-22T10:51:33.460Z,9.43
2018-04-22T10:54:00.989Z,8.60
2018-04-22T10:56:28.531Z,6.97
2018-04-22T10:58:56.057Z,9.93
2018-04-22T11:01:24.282Z,9.17
2018-04-22T11:03:51.834Z,6.87
2018-04-22T11:06:19.330Z,7.53
2018-04-22T11:08:46.875Z,8.87
2018-04-22T11:11:14.375Z,10.77
2018-04-22T11:13:41.858Z,7.93
2018-04-22T11:16:09.333Z,9.77
2018-04-22T11:18:36.798Z,7.70
2018-04-22T11:21:04.313Z,9.40
2018-04-22T11:23:31.860Z,10.93
2018-04-22T11:26:00.116Z,8.90
2018-04-22T11:28:27.580Z,8.87
2018-04-22T11:30:55.080Z,10.53
2018-04-22T11:33:22.538Z,11.20
2018-04-22T11:35:50.800Z,7.40
2018-04-22T11:38:18.296Z,9.23
2018-04-22T11:40:45.774Z,7.43
2018-04-22T11:43:13.300Z,6.90
2018-04-22T11:45:40.770Z,9.63
2018-04-22T11:48:08.306Z,8.13
2018-04-22T11:50:35.773Z,7.33
2018-04-22T11:53:03.257Z,11.37
2018-04-22T11:55:30.761Z,13.57
2018-04-22T11:57:58.234Z,8.57
2018-04-22T12:00:25.741Z,6.13
2018-04-22T12:02:53.214Z,10.97
2018-04-22T12:05:21.512Z,6.93
2018-04-22T12:07:49.001Z,8.07
2018-04-22T12:10:16.519Z,10.03
2018-04-22T12:12:44.085Z,6.37
2018-04-22T12:15:11.626Z,9.63
2018-04-22T12:17:39.132Z,7.27
2018-04-22T12:20:06.642Z,6.83
2018-04-22T12:22:34.951Z,7.50
2018-04-22T12:25:02.452Z,9.23
2018-04-22T12:27:30.076Z,8.00
2018-04-22T12:29:57.614Z,8.57
2018-04-22T12:32:25.222Z,6.33
2018-04-22T12:34:52.703Z,13.77
2018-04-22T12:37:20.185Z,7.67
2018-04-22T12:39:48.448Z,9.13
2018-04-22T12:42:16.732Z,8.57
2018-04-22T12:44:44.981Z,6.00
2018-04-22T12:47:12.451Z,9.27
2018-04-22T12:49:40.707Z,8.73
2018-04-22T12:52:08.167Z,6.67
2018-04-22T12:54:35.643Z,8.80
2018-04-22T12:57:03.972Z,8.77
2018-04-22T12:59:31.484Z,6.80
2018-04-22T13:01:58.980Z,5.67
2018-04-22T13:04:26.451Z,7.50
2018-04-22T13:06:53.951Z,8.67
2018-04-22T13:09:22.257Z,10.30
2018-04-22T13:11:49.744Z,7.77
2018-04-22T13:14:17.243Z,8.53
2018-04-22T13:16:45.518Z,4.80
2018-04-22T13:19:13.921Z,8.70
2018-04-22T13:21:41.395Z,4.83
2018-04-22T13:24:08.897Z,5.23
2018-04-22T13:26:36.366Z,6.40
2018-04-22T13:29:04.627Z,8.53
2018-04-22T13:31:32.110Z,8.00
2018-04-22T13:34:00.368Z,4.70
2018-04-22T13:36:27.865Z,4.87
2018-04-22T13:38:55.355Z,6.27
2018-04-22T13:41:22.853Z,10.70
2018-04-22T13:43:50.375Z,5.03
2018-04-22T13:46:17.865Z,5.03
2018-04-22T13:48:45.402Z,4.93
2018-04-22T13:51:12.874Z,5.47
2018-04-22T13:53:40.714Z,4.90
2018-04-22T13:56:08.194Z,11.57
2018-04-22T13:58:35.675Z,4.93
2018-04-22T14:01:03.145Z,5.43
2018-04-22T14:03:30.648Z,5.40
2018-04-22T14:05:58.112Z,6.50
2018-04-22T14:08:25.609Z,5.30
2018-04-22T14:10:53.867Z,6.57
2018-04-22T14:13:21.355Z,6.27
2018-04-22T14:15:48.857Z,8.03
2018-04-22T14:18:16.843Z,5.60
2018-04-22T14:20:44.336Z,6.40
2018-04-22T14:23:11.849Z,7.27
2018-04-22T14:25:39.340Z,9.90
2018-04-22T14:28:07.609Z,5.30
2018-04-22T14:30:35.891Z,4.80
2018-04-22T14:33:04.152Z,7.10
2018-04-22T14:35:31.616Z,5.27
2018-04-22T14:37:59.958Z,7.67
2018-04-22T14:40:27.416Z,8.70
2018-04-22T14:42:54.912Z,7.30
2018-04-22T14:45:34.140Z,5.20
2018-04-22T14:48:02.399Z,4.80
2018-04-22T14:50:29.905Z,8.33
2018-04-22T14:52:57.401Z,4.57
2018-04-22T14:55:24.891Z,6.53
2018-04-22T14:57:53.209Z,6.17
2018-04-22T15:00:20.656Z,4.40
2018-04-22T15:02:48.127Z,6.33
2018-04-22T15:05:15.637Z,5.10
2018-04-22T15:07:43.116Z,6.20
2018-04-22T15:10:10.599Z,5.70
2018-04-22T15:12:38.097Z,7.00
2018-04-22T15:15:05.590Z,5.67
2018-04-22T15:17:33.124Z,5.10
2018-04-22T15:20:01.396Z,6.10
2018-04-22T15:22:28.869Z,7.27
2018-04-22T15:24:57.157Z,8.10
2018-04-22T15:27:24.595Z,5.67
2018-04-22T15:29:52.847Z,5.97
2018-04-22T15:32:20.337Z,5.57
2018-04-22T15:34:48.621Z,4.90
2018-04-22T15:37:16.854Z,7.47
2018-04-22T15:39:44.372Z,7.17
2018-04-22T15:42:11.843Z,5.83
2018-04-22T15:44:39.332Z,5.17
2018-04-22T15:47:06.813Z,8.00
2018-04-22T15:49:34.322Z,7.73
2018-04-22T15:52:01.835Z,6.93
2018-04-22T15:54:30.093Z,6.73
2018-04-22T15:56:57.567Z,6.10
2018-04-22T15:59:25.835Z,8.60
2018-04-22T16:01:54.093Z,4.80
2018-04-22T16:04:21.590Z,5.10
2018-04-22T16:06:49.090Z,5.10
2018-04-22T16:09:16.590Z,6.30
2018-04-22T16:11:44.242Z,5.67
2018-04-22T16:14:11.749Z,5.77
2018-04-22T16:16:39.232Z,5.60
2018-04-22T16:19:06.745Z,5.50
2018-04-22T16:21:34.225Z,6.43
2018-04-22T16:24:01.741Z,13.30
2018-04-22T16:26:29.222Z,6.70
2018-04-22T16:28:56.712Z,6.53
2018-04-22T16:31:24.224Z,9.87
2018-04-22T16:33:52.470Z,6.10
2018-04-22T16:36:19.995Z,6.90
2018-04-22T16:38:47.460Z,6.43
2018-04-22T16:41:15.721Z,7.73
2018-04-22T16:43:43.195Z,9.53
2018-04-22T16:46:10.667Z,4.30
2018-04-22T16:48:38.163Z,5.33
2018-04-22T16:51:06.403Z,8.97
2018-04-22T16:53:34.654Z,8.03
2018-04-22T16:56:02.125Z,6.17
2018-04-22T16:58:29.605Z,7.17
2018-04-22T17:00:57.102Z,8.67
2018-04-22T17:03:24.589Z,6.83
2018-04-22T17:05:52.155Z,13.30
2018-04-22T17:08:19.586Z,8.87
2018-04-22T17:10:47.090Z,5.67
2018-04-22T17:13:14.582Z,14.47
2018-04-22T17:15:42.053Z,7.07
2018-04-22T17:18:09.549Z,6.73
2018-04-22T17:20:37.015Z,5.10
2018-04-22T17:23:04.477Z,5.60
2018-04-22T17:25:31.983Z,7.37
2018-04-22T17:27:59.459Z,10.30
2018-04-22T17:30:26.937Z,6.73
2018-04-22T17:32:54.417Z,11.37
2018-04-22T17:35:21.907Z,7.10
2018-04-22T17:37:49.433Z,5.03
2018-04-22T17:40:16.904Z,8.67
2018-04-22T17:42:44.407Z,7.53
2018-04-22T17:45:12.652Z,7.30
2018-04-22T17:47:40.134Z,7.30
2018-04-22T17:50:07.645Z,5.40
2018-04-22T17:52:35.132Z,7.77
2018-04-22T17:55:02.639Z,11.30
2018-04-22T17:57:30.116Z,8.30
2018-04-22T17:59:57.597Z,11.23
2018-04-22T18:02:25.091Z,5.73
2018-04-22T18:04:52.587Z,11.13
2018-04-22T18:07:20.132Z,13.63
2018-04-22T18:09:47.667Z,11.43
2018-04-22T18:12:15.451Z,8.20
2018-04-22T18:14:42.976Z,7.67
2018-04-22T18:17:10.492Z,10.50
2018-04-22T18:19:38.724Z,8.70
2018-04-22T18:22:06.585Z,10.37
2018-04-22T18:24:34.056Z,9.93
2018-04-22T18:27:01.570Z,10.70
2018-04-22T18:29:29.092Z,7.17
2018-04-22T18:31:56.571Z,8.90
2018-04-22T18:34:24.130Z,6.40
2018-04-22T18:36:51.639Z,10.50
2018-04-22T18:39:19.121Z,9.27
2018-04-22T18:41:46.588Z,8.00
2018-04-22T18:44:14.917Z,11.40
2018-04-22T18:46:42.404Z,10.47
2018-04-22T18:49:10.714Z,6.87
2018-04-22T18:51:39.010Z,12.40
2018-04-22T18:54:06.500Z,6.93
2018-04-22T18:56:34.727Z,8.37
2018-04-22T18:59:02.981Z,6.60
2018-04-22T19:01:30.462Z,8.83
2018-04-22T19:03:58.730Z,12.33
2018-04-22T19:06:26.227Z,14.47
2018-04-22T19:08:53.694Z,17.83
2018-04-22T19:11:21.240Z,11.77
2018-04-22T19:13:48.711Z,12.27
2018-04-22T19:16:16.241Z,9.70
2018-04-22T19:18:44.475Z,8.80
2018-04-22T19:21:11.949Z,12.03
2018-04-22T19:23:39.446Z,8.50
2018-04-22T19:26:07.739Z,11.90
2018-04-22T19:28:35.284Z,12.70
2018-04-22T19:31:02.771Z,10.53
2018-04-22T19:33:30.241Z,8.83
2018-04-22T19:35:57.732Z,11.07
2018-04-22T19:38:25.442Z,8.33
2018-04-22T19:40:53.748Z,6.13
2018-04-22T19:43:21.625Z,15.20
2018-04-22T19:45:49.083Z,8.23
2018-04-22T19:48:17.341Z,8.10
2018-04-22T19:50:46.009Z,8.27
2018-04-22T19:53:13.538Z,8.63
2018-04-22T19:55:41.070Z,13.20
2018-04-22T19:58:08.566Z,8.50
2018-04-22T20:00:36.274Z,14.53
2018-04-22T20:03:04.714Z,12.63
2018-04-22T20:05:32.213Z,15.67
2018-04-22T20:08:00.492Z,7.83
2018-04-22T20:10:27.970Z,9.93
2018-04-22T20:12:56.260Z,11.17
2018-04-22T20:15:23.760Z,10.50
2018-04-22T20:17:51.254Z,12.37
2018-04-22T20:20:19.497Z,12.37
2018-04-22T20:22:46.974Z,11.60
2018-04-22T20:25:15.272Z,9.67
2018-04-22T20:27:43.359Z,7.23
2018-04-22T20:30:10.865Z,11.90
2018-04-22T20:32:38.395Z,14.73
2018-04-22T20:35:05.926Z,10.80
2018-04-22T20:37:34.828Z,8.53
2018-04-22T20:40:03.486Z,15.47
2018-04-22T20:42:31.811Z,12.03
2018-04-22T20:44:59.359Z,10.10
2018-04-22T20:47:26.885Z,10.00
2018-04-22T20:49:54.400Z,11.20
2018-04-22T20:52:21.864Z,12.27
2018-04-22T20:54:49.351Z,8.00
2018-04-22T20:57:17.658Z,11.30
2018-04-22T20:59:45.138Z,10.20
2018-04-22T21:02:12.602Z,15.20
2018-04-22T21:04:40.089Z,12.47
2018-04-22T21:07:07.574Z,10.60
2018-04-22T21:09:35.053Z,11.20
2018-04-22T21:12:02.573Z,9.17
2018-04-22T21:14:30.805Z,10.30
2018-04-22T21:16:58.276Z,12.50
2018-04-22T21:19:25.790Z,14.33
2018-04-22T21:21:53.267Z,14.13
2018-04-22T21:24:20.745Z,8.20
2018-04-22T21:26:48.248Z,14.87
2018-04-22T21:29:16.823Z,10.40
2018-04-22T21:31:45.075Z,8.70
2018-04-22T21:34:12.566Z,12.63
2018-04-22T21:36:40.804Z,13.97
2018-04-22T21:39:08.278Z,10.63
2018-04-22T21:41:35.766Z,10.33
2018-04-22T21:44:03.252Z,14.40
2018-04-22T21:46:30.730Z,11.17
2018-04-22T21:48:58.205Z,12.83
2018-04-22T21:51:25.682Z,9.80
2018-04-22T21:53:53.194Z,8.77
2018-04-22T21:56:20.664Z,9.87
2018-04-22T21:58:48.156Z,11.37
2018-04-22T22:01:15.643Z,7.57
2018-04-22T22:03:43.139Z,11.83
2018-04-22T22:06:10.636Z,8.43
2018-04-22T22:08:38.123Z,10.83
2018-04-22T22:11:05.607Z,8.63
2018-04-22T22:13:33.068Z,12.93
2018-04-22T22:16:00.542Z,8.97
2018-04-22T22:18:28.026Z,11.73
2018-04-22T22:20:56.272Z,10.00
2018-04-22T22:23:23.777Z,11.60
2018-04-22T22:25:51.239Z,11.20
2018-04-22T22:28:19.792Z,8.43
2018-04-22T22:30:48.043Z,14.40
2018-04-22T22:33:15.521Z,12.67
2018-04-22T22:35:43.772Z,10.27
2018-04-22T22:38:11.244Z,9.37
2018-04-22T22:40:39.480Z,14.03
2018-04-22T22:43:06.967Z,13.20
2018-04-22T22:45:34.447Z,10.90
2018-04-22T22:48:02.677Z,12.37
2018-04-22T22:50:30.454Z,17.43
2018-04-22T22:52:58.057Z,10.50
2018-04-22T22:55:25.557Z,12.40
2018-04-22T22:57:53.072Z,10.87
2018-04-22T23:00:21.449Z,12.33
2018-04-22T23:02:49.819Z,10.43
2018-04-22T23:05:18.060Z,11.27
2018-04-22T23:07:45.538Z,13.37
2018-04-22T23:10:13.010Z,8.87
2018-04-22T23:12:40.500Z,10.60
2018-04-22T23:15:08.042Z,9.40
2018-04-22T23:17:35.506Z,12.47
2018-04-22T23:20:03.002Z,14.40
2018-04-22T23:22:30.480Z,21.53
2018-04-22T23:24:57.970Z,12.90
2018-04-22T23:27:25.441Z,9.97
2018-04-22T23:29:52.912Z,14.00
2018-04-22T23:32:20.373Z,13.00
2018-04-22T23:34:47.841Z,10.50
2018-04-22T23:37:15.353Z,15.70
2018-04-22T23:39:43.584Z,15.03
2018-04-22T23:42:11.061Z,13.73
2018-04-22T23:44:39.312Z,12.97
2018-04-22T23:47:06.790Z,8.33
2018-04-22T23:49:34.293Z,12.13
2018-04-22T23:52:01.765Z,10.20
2018-04-22T23:54:29.227Z,12.17
2018-04-22T23:56:56.728Z,10.67
2018-04-22T23:59:24.973Z,8.10
